Witbank, South Africa
Current Conditions -  °F | °C
As of 7:30 PM on Saturday 25 Oct 2014 (Local Time) from FAOR Reporting Station
Thunderstorm Thunderstorm  
Wind Chill: 63°   Ceiling: Unl
Heat Index: 63°   Visibility: 6mi
Dew Point: 46°   Wind: 25mph
Humidity: 55%   Direction: 100°E
Pressure: 30.18"   Gusts: 37mph
Location:  25.86°S, 29.22°E
Report Text: FAOR 251730Z 10022G32KT 9999 VCTS FEW050CB 17/08 Q1022 NOSIG
Loading
Personal Weather Stations






























Interactive Weather Map
Tropical Storm Tracking
New forecast layout! Learn more

10-Day Weather Forecast

Advertisements
Track Severe Weather on mobile